Time;durP1;ratioP1;P1;durP2;ratioP2;P2;SDS_P1;SDS_P2;PMS_P1;PMS_P2;Temp;Humidity;BMP_temperature;BMP_pressure;BME280_temperature;BME280_humidity;BME280_pressure;Samples;Min_cycle;Max_cycle;Signal;HPM_P1;HPM_P2
2021/10/24 00:01:06;;;;;;;2.40;2.20;;;10.30;56.70;;;;;;4916597;29;20833;-83
2021/10/24 00:03:35;;;;;;;4.33;2.83;;;10.20;56.00;;;;;;4917391;29;20842;-81
2021/10/24 00:06:05;;;;;;;3.50;2.87;;;10.20;56.90;;;;;;4916000;29;20473;-81
2021/10/24 00:08:33;;;;;;;2.40;2.20;;;10.30;58.20;;;;;;4912235;29;20475;-82
2021/10/24 00:11:01;;;;;;;6.50;3.10;;;10.20;57.70;;;;;;4922312;29;21038;-82
2021/10/24 00:13:30;;;;;;;5.67;2.97;;;10.20;56.50;;;;;;4912389;29;20637;-80
2021/10/24 00:15:59;;;;;;;4.20;2.13;;;10.10;57.70;;;;;;4925949;29;20474;-81
2021/10/24 00:18:27;;;;;;;3.70;2.13;;;10.20;59.10;;;;;;4932767;29;20972;-82
2021/10/24 00:20:56;;;;;;;2.33;2.13;;;10.20;56.90;;;;;;4922139;29;20536;-81
2021/10/24 00:23:25;;;;;;;3.10;2.20;;;10.10;57.30;;;;;;4918666;29;20465;-82
2021/10/24 00:25:54;;;;;;;2.33;2.10;;;10.20;58.10;;;;;;4913697;29;20458;-82
2021/10/24 00:28:22;;;;;;;3.00;1.90;;;10.20;57.60;;;;;;4917673;29;20493;-81
2021/10/24 00:30:51;;;;;;;3.00;2.30;;;10.20;58.10;;;;;;4927180;29;20481;-81
2021/10/24 00:33:21;;;;;;;8.20;2.67;;;10.20;57.20;;;;;;4916676;29;20882;-81
2021/10/24 00:35:49;;;;;;;5.37;2.50;;;10.20;56.90;;;;;;4918076;29;20464;-81
2021/10/24 00:38:17;;;;;;;2.63;2.23;;;10.30;57.90;;;;;;4913915;29;20488;-82
2021/10/24 00:40:47;;;;;;;3.10;2.63;;;10.40;56.60;;;;;;4918537;29;20516;-81
2021/10/24 00:43:15;;;;;;;4.73;2.50;;;10.20;55.10;;;;;;4911058;29;20468;-82
2021/10/24 00:45:43;;;;;;;3.20;2.90;;;10.20;54.50;;;;;;4919362;29;21125;-80
2021/10/24 00:48:12;;;;;;;4.67;3.20;;;10.10;54.90;;;;;;4922425;29;20508;-84
2021/10/24 00:50:42;;;;;;;2.90;2.40;;;10.20;55.30;;;;;;4923412;29;20474;-83
2021/10/24 00:53:14;;;;;;;2.87;2.47;;;10.20;53.70;;;;;;4923690;29;20873;-85
2021/10/24 00:55:45;;;;;;;2.70;2.50;;;10.10;53.60;;;;;;4923231;29;20794;-82
2021/10/24 00:58:17;;;;;;;3.33;3.03;;;10.10;53.30;;;;;;4920104;29;20486;-82
2021/10/24 01:00:45;;;;;;;8.30;2.40;;;10.10;53.10;;;;;;4920834;29;20467;-81
2021/10/24 01:03:14;;;;;;;3.10;2.43;;;10.10;53.60;;;;;;4917850;29;20457;-79
2021/10/24 01:05:43;;;;;;;3.60;2.90;;;9.90;53.30;;;;;;4916022;29;20547;-82
2021/10/24 01:08:12;;;;;;;3.40;2.53;;;9.90;49.60;;;;;;4914172;29;20533;-80
2021/10/24 01:10:41;;;;;;;3.53;3.00;;;9.70;49.60;;;;;;4909213;29;20489;-81
2021/10/24 01:13:09;;;;;;;3.23;3.00;;;9.60;51.20;;;;;;4916590;29;20469;-82
2021/10/24 01:15:39;;;;;;;5.70;2.97;;;9.60;51.70;;;;;;4914418;29;20524;-83
2021/10/24 01:18:11;;;;;;;4.00;2.57;;;9.70;52.30;;;;;;4918383;29;20842;-84
2021/10/24 01:20:39;;;;;;;4.07;2.17;;;9.80;52.10;;;;;;4918447;29;20821;-81
2021/10/24 01:23:10;;;;;;;4.37;2.20;;;9.70;51.00;;;;;;4914683;29;20468;-81
2021/10/24 01:25:38;;;;;;;4.57;3.40;;;9.70;48.30;;;;;;4907014;29;20810;-81
2021/10/24 01:28:08;;;;;;;8.10;2.23;;;9.70;49.00;;;;;;4914726;29;20849;-81
2021/10/24 01:30:36;;;;;;;2.80;2.50;;;9.60;48.30;;;;;;4919640;29;20911;-81
2021/10/24 01:33:05;;;;;;;3.67;3.00;;;9.50;45.40;;;;;;4910897;29;20466;-80
2021/10/24 01:35:33;;;;;;;3.10;2.90;;;9.50;46.60;;;;;;4918332;29;20928;-79
2021/10/24 01:38:02;;;;;;;2.97;2.43;;;9.50;46.80;;;;;;4907413;29;20961;-80
2021/10/24 01:40:33;;;;;;;2.33;2.03;;;9.50;47.20;;;;;;4928695;29;20467;-81
2021/10/24 01:43:01;;;;;;;3.93;2.73;;;9.50;46.40;;;;;;4912001;29;20494;-82
2021/10/24 01:45:30;;;;;;;2.50;2.30;;;9.40;45.10;;;;;;4916602;29;20461;-81
2021/10/24 01:47:58;;;;;;;4.17;2.47;;;9.40;44.60;;;;;;4916835;29;20487;-82
2021/10/24 01:50:27;;;;;;;4.27;2.50;;;9.40;45.40;;;;;;4912725;29;20464;-83
2021/10/24 01:52:55;;;;;;;4.60;2.87;;;9.40;46.00;;;;;;4918971;29;20491;-84
2021/10/24 01:55:23;;;;;;;3.73;2.83;;;9.40;46.00;;;;;;4908243;29;20454;-81
2021/10/24 01:57:56;;;;;;;3.10;2.40;;;9.30;44.70;;;;;;4913377;29;20505;-83
2021/10/24 02:00:24;;;;;;;3.33;2.07;;;9.30;44.50;;;;;;4910159;29;20506;-81
2021/10/24 02:02:53;;;;;;;9.17;2.90;;;9.20;42.80;;;;;;4913971;29;20472;-80
2021/10/24 02:05:22;;;;;;;6.03;3.00;;;9.20;44.10;;;;;;4914932;29;20460;-81
2021/10/24 02:07:50;;;;;;;2.40;2.20;;;9.20;41.90;;;;;;4911719;29;20900;-81
2021/10/24 02:10:20;;;;;;;2.63;2.43;;;9.10;41.90;;;;;;4911929;29;20616;-81
2021/10/24 02:12:49;;;;;;;2.67;2.47;;;9.10;42.60;;;;;;4913382;29;20499;-82
2021/10/24 02:15:18;;;;;;;4.43;3.50;;;9.10;45.00;;;;;;4908972;29;20473;-82
2021/10/24 02:17:47;;;;;;;5.80;3.20;;;9.10;45.50;;;;;;4921211;29;20548;-81
2021/10/24 02:20:15;;;;;;;4.73;3.40;;;9.20;44.80;;;;;;4931402;29;20474;-80
2021/10/24 02:22:44;;;;;;;3.23;2.63;;;9.20;44.20;;;;;;4911983;29;20536;-82
2021/10/24 02:25:12;;;;;;;3.27;2.23;;;9.10;43.10;;;;;;4914127;29;20988;-80
2021/10/24 02:27:41;;;;;;;4.93;2.40;;;9.10;43.30;;;;;;4915427;29;20480;-84
2021/10/24 02:30:11;;;;;;;3.53;2.50;;;9.10;43.40;;;;;;4911776;29;20469;-81
2021/10/24 02:32:42;;;;;;;3.17;2.50;;;9.10;41.20;;;;;;4917512;29;20543;-81
2021/10/24 02:35:12;;;;;;;4.40;2.33;;;9.00;40.50;;;;;;4914870;29;20476;-82
2021/10/24 02:37:40;;;;;;;2.50;2.30;;;9.10;41.50;;;;;;4912856;29;20484;-82
2021/10/24 02:40:10;;;;;;;3.00;2.80;;;9.10;39.40;;;;;;4914223;29;20473;-82
2021/10/24 02:42:39;;;;;;;5.63;2.57;;;9.10;39.10;;;;;;4907307;29;20461;-82
2021/10/24 02:45:08;;;;;;;4.33;2.70;;;9.00;40.60;;;;;;4925051;29;20459;-83
2021/10/24 02:47:36;;;;;;;2.47;2.27;;;9.00;39.50;;;;;;4914530;29;20494;-83
2021/10/24 02:50:08;;;;;;;2.77;2.47;;;9.00;41.70;;;;;;4914782;29;20457;-81
2021/10/24 02:52:36;;;;;;;5.47;2.80;;;8.90;38.70;;;;;;4914992;29;20515;-84
2021/10/24 02:55:06;;;;;;;2.23;2.00;;;8.80;38.00;;;;;;4928694;29;20467;-82
2021/10/24 02:57:34;;;;;;;3.23;2.87;;;8.80;39.10;;;;;;4916752;29;20476;-82
2021/10/24 03:00:04;;;;;;;2.90;2.20;;;8.80;41.50;;;;;;4910997;29;20815;-80
2021/10/24 03:02:32;;;;;;;3.03;2.37;;;8.80;38.00;;;;;;4915781;29;20834;-80
2021/10/24 03:05:00;;;;;;;2.60;2.37;;;8.60;36.00;;;;;;4913644;29;20499;-82
2021/10/24 03:07:30;;;;;;;2.90;2.03;;;8.60;37.00;;;;;;4916609;29;20488;-81
2021/10/24 03:09:58;;;;;;;5.80;2.47;;;8.70;38.50;;;;;;4915521;29;20457;-81
2021/10/24 03:12:26;;;;;;;3.07;2.50;;;8.70;40.10;;;;;;4915781;29;20864;-84
2021/10/24 03:14:55;;;;;;;5.40;3.03;;;8.80;40.80;;;;;;4911664;29;20847;-82
2021/10/24 03:17:23;;;;;;;3.80;2.50;;;8.70;39.60;;;;;;4915872;29;20490;-82
2021/10/24 03:19:51;;;;;;;2.67;2.40;;;8.60;39.30;;;;;;4914413;29;20531;-83
2021/10/24 03:22:20;;;;;;;2.93;2.83;;;8.60;38.00;;;;;;4917374;29;20457;-81
2021/10/24 03:24:50;;;;;;;4.07;3.23;;;8.60;37.50;;;;;;4917318;29;21052;-82
2021/10/24 03:27:18;;;;;;;4.60;2.97;;;8.60;39.50;;;;;;4909397;29;20504;-81
2021/10/24 03:29:46;;;;;;;3.50;2.70;;;8.70;39.80;;;;;;4908675;29;20504;-82
2021/10/24 03:32:14;;;;;;;4.43;2.87;;;8.70;38.00;;;;;;4911164;29;20471;-82
2021/10/24 03:34:43;;;;;;;2.40;2.20;;;8.60;39.00;;;;;;4936691;28;20512;-82
2021/10/24 03:37:11;;;;;;;3.67;2.23;;;8.60;38.80;;;;;;4921280;29;21112;-82
2021/10/24 03:39:39;;;;;;;4.07;3.17;;;8.70;39.70;;;;;;4931915;29;20460;-82
2021/10/24 03:42:09;;;;;;;3.70;3.40;;;8.60;39.80;;;;;;4914454;29;20452;-84
2021/10/24 03:44:38;;;;;;;3.00;2.80;;;8.50;39.10;;;;;;4913409;29;20534;-80
2021/10/24 03:47:06;;;;;;;3.37;2.07;;;8.50;40.00;;;;;;4913958;29;20836;-80
2021/10/24 03:49:35;;;;;;;2.40;2.27;;;8.50;41.50;;;;;;4916003;29;20555;-83
2021/10/24 03:52:03;;;;;;;3.10;2.37;;;8.60;40.80;;;;;;4927733;29;20483;-81
2021/10/24 03:54:31;;;;;;;2.53;2.13;;;8.50;40.00;;;;;;4917417;29;20469;-82
2021/10/24 03:57:00;;;;;;;2.57;2.37;;;8.50;40.00;;;;;;4917375;29;20933;-80
2021/10/24 03:59:30;;;;;;;2.47;2.10;;;8.50;37.80;;;;;;4931196;29;21048;-83
2021/10/24 04:01:58;;;;;;;3.27;2.77;;;8.50;38.30;;;;;;4917025;29;20450;-80
2021/10/24 04:04:27;;;;;;;3.70;1.83;;;8.50;38.30;;;;;;4919418;29;20913;-80
2021/10/24 04:06:55;;;;;;;2.13;1.93;;;8.50;39.20;;;;;;4914802;29;20839;-82
2021/10/24 04:09:24;;;;;;;2.30;2.07;;;8.50;39.40;;;;;;4919002;29;20467;-81
2021/10/24 04:11:52;;;;;;;3.30;2.37;;;8.40;41.30;;;;;;4925129;29;20491;-80
2021/10/24 04:14:20;;;;;;;2.10;1.97;;;8.50;39.10;;;;;;4913037;29;20458;-80
2021/10/24 04:16:50;;;;;;;1.90;1.80;;;8.40;38.20;;;;;;4915796;29;20595;-82
2021/10/24 04:19:18;;;;;;;3.20;2.03;;;8.40;38.30;;;;;;4911187;29;20545;-80
2021/10/24 04:21:46;;;;;;;2.63;2.43;;;8.40;37.70;;;;;;4914221;29;20472;-82
2021/10/24 04:24:15;;;;;;;3.90;2.87;;;8.40;38.40;;;;;;4929949;29;20455;-81
2021/10/24 04:26:43;;;;;;;2.63;2.40;;;8.40;38.30;;;;;;4917513;29;20474;-80
2021/10/24 04:29:11;;;;;;;3.50;2.57;;;8.40;36.70;;;;;;4916898;29;20926;-81
2021/10/24 04:31:40;;;;;;;2.17;1.97;;;8.40;36.60;;;;;;4916456;29;20462;-81
2021/10/24 04:34:10;;;;;;;4.33;2.03;;;8.40;38.10;;;;;;4918810;29;20745;-80
2021/10/24 04:36:38;;;;;;;4.60;2.63;;;8.30;40.00;;;;;;4910442;29;20760;-82
2021/10/24 04:39:06;;;;;;;4.20;2.83;;;8.30;37.90;;;;;;4908058;29;20468;-82
2021/10/24 04:41:35;;;;;;;4.73;2.67;;;8.30;36.70;;;;;;4916475;29;20473;-83
2021/10/24 04:44:03;;;;;;;3.53;3.00;;;8.30;37.80;;;;;;4912002;29;20482;-81
2021/10/24 04:46:31;;;;;;;3.90;2.77;;;8.30;37.90;;;;;;4913722;29;20494;-81
2021/10/24 04:49:00;;;;;;;3.10;2.03;;;8.30;37.90;;;;;;4916474;29;20463;-81
2021/10/24 04:51:29;;;;;;;4.23;1.83;;;8.30;38.30;;;;;;4919655;29;20474;-81
2021/10/24 04:53:58;;;;;;;2.87;2.20;;;8.30;38.10;;;;;;4915302;29;20929;-81
2021/10/24 04:56:26;;;;;;;5.60;3.47;;;8.30;35.60;;;;;;4916206;29;21027;-80
2021/10/24 04:58:54;;;;;;;4.80;2.80;;;8.30;34.70;;;;;;4917490;29;20561;-80
2021/10/24 05:01:22;;;;;;;3.70;2.70;;;8.30;35.40;;;;;;4918148;29;20468;-82
2021/10/24 05:03:51;;;;;;;4.10;2.97;;;8.30;37.00;;;;;;4918714;29;20466;-80
2021/10/24 05:06:20;;;;;;;4.67;3.20;;;8.20;36.20;;;;;;4922600;29;20486;-80
2021/10/24 05:08:49;;;;;;;3.47;3.07;;;8.20;35.70;;;;;;4923403;29;20534;-83
2021/10/24 05:11:19;;;;;;;4.03;2.50;;;8.20;34.10;;;;;;4919706;29;20527;-81
2021/10/24 05:13:47;;;;;;;6.43;2.50;;;8.20;34.60;;;;;;4913047;29;20496;-80
2021/10/24 05:16:16;;;;;;;7.40;2.30;;;8.10;35.80;;;;;;4919213;29;20985;-80
2021/10/24 05:18:44;;;;;;;5.60;2.80;;;8.10;37.60;;;;;;4918908;29;20454;-81
2021/10/24 05:21:13;;;;;;;4.23;2.80;;;8.00;39.20;;;;;;4921605;29;20459;-84
2021/10/24 05:23:41;;;;;;;2.40;2.20;;;8.10;38.40;;;;;;4918270;29;20884;-81
2021/10/24 05:26:11;;;;;;;6.03;2.73;;;8.00;38.70;;;;;;4920567;29;20466;-84
2021/10/24 05:28:39;;;;;;;6.27;2.73;;;8.00;39.20;;;;;;4926549;29;20464;-82
2021/10/24 05:31:07;;;;;;;4.37;2.60;;;8.10;39.80;;;;;;4922699;29;20473;-80
2021/10/24 05:33:36;;;;;;;3.77;2.50;;;8.10;38.40;;;;;;4924963;29;20482;-80
2021/10/24 05:36:05;;;;;;;4.77;3.00;;;8.10;35.90;;;;;;4915524;29;20481;-80
2021/10/24 05:38:34;;;;;;;8.70;2.50;;;8.10;34.00;;;;;;4914080;29;20468;-81
2021/10/24 05:41:02;;;;;;;4.50;2.70;;;8.00;33.70;;;;;;4911929;29;20483;-80
2021/10/24 05:43:32;;;;;;;3.57;2.50;;;8.00;33.90;;;;;;4914591;29;21216;-80
2021/10/24 05:46:00;;;;;;;3.60;2.73;;;7.90;34.40;;;;;;4920400;29;20492;-81
2021/10/24 05:48:29;;;;;;;3.87;3.20;;;8.00;35.10;;;;;;4912083;29;20490;-80
2021/10/24 05:50:57;;;;;;;4.33;2.37;;;8.00;35.10;;;;;;4921491;29;20472;-82
2021/10/24 05:53:26;;;;;;;3.47;2.10;;;8.00;35.20;;;;;;4924930;29;20490;-83
2021/10/24 05:55:57;;;;;;;3.10;2.50;;;8.00;35.40;;;;;;4924884;29;20718;-81
2021/10/24 05:58:25;;;;;;;3.30;2.10;;;8.00;36.10;;;;;;4933503;28;20462;-81
2021/10/24 06:00:55;;;;;;;3.37;2.27;;;8.00;35.30;;;;;;4915398;29;21077;-80
2021/10/24 06:03:24;;;;;;;3.63;2.17;;;7.90;31.30;;;;;;4914896;29;20462;-82
2021/10/24 06:05:52;;;;;;;3.83;3.10;;;7.80;30.30;;;;;;4925308;29;21060;-81
2021/10/24 06:08:23;;;;;;;4.00;2.50;;;7.90;34.20;;;;;;4931524;29;20518;-83
2021/10/24 06:10:54;;;;;;;3.47;2.40;;;7.80;34.20;;;;;;4922259;29;20502;-82
2021/10/24 06:13:24;;;;;;;2.83;2.53;;;7.90;33.80;;;;;;4915206;29;20482;-83
2021/10/24 06:15:53;;;;;;;2.63;2.27;;;7.90;33.90;;;;;;4917737;29;20467;-75
2021/10/24 06:18:23;;;;;;;4.67;2.53;;;7.70;32.10;;;;;;4911931;29;20805;-79
2021/10/24 06:20:51;;;;;;;4.33;2.70;;;7.50;34.10;;;;;;4910792;29;21093;-74
2021/10/24 06:23:19;;;;;;;4.03;2.60;;;7.60;36.80;;;;;;4905909;29;20494;-78
2021/10/24 06:25:47;;;;;;;3.57;3.13;;;7.80;36.10;;;;;;4911432;29;20446;-79
2021/10/24 06:28:16;;;;;;;3.67;3.03;;;7.80;36.60;;;;;;4911585;29;20474;-79
2021/10/24 06:30:44;;;;;;;4.87;3.03;;;7.80;36.60;;;;;;4909888;29;20521;-78
2021/10/24 06:33:12;;;;;;;4.33;3.73;;;7.90;36.70;;;;;;4910832;29;20477;-79
2021/10/24 06:35:42;;;;;;;4.00;3.10;;;8.00;38.80;;;;;;4913786;29;20466;-79
2021/10/24 06:38:11;;;;;;;3.13;2.90;;;7.70;40.30;;;;;;4906934;29;20484;-79
2021/10/24 06:40:40;;;;;;;2.70;2.50;;;7.80;36.10;;;;;;4911426;29;20821;-78
2021/10/24 06:43:08;;;;;;;5.33;2.90;;;7.60;35.40;;;;;;4907960;29;20811;-80
2021/10/24 06:45:36;;;;;;;5.90;3.77;;;7.70;52.10;;;;;;4909266;29;20467;-79
2021/10/24 06:48:06;;;;;;;3.53;3.23;;;7.80;39.80;;;;;;4912735;29;20482;-77
2021/10/24 06:50:35;;;;;;;6.03;3.10;;;7.80;41.50;;;;;;4911058;29;20470;-79
2021/10/24 06:53:04;;;;;;;4.03;3.70;;;7.80;42.80;;;;;;4911111;29;20466;-79
2021/10/24 06:55:33;;;;;;;4.80;4.03;;;7.80;45.10;;;;;;4911584;29;20540;-79
2021/10/24 06:58:01;;;;;;;3.90;2.53;;;7.80;45.90;;;;;;4908056;29;20475;-80
2021/10/24 07:00:30;;;;;;;3.10;2.67;;;7.90;44.60;;;;;;4907980;29;20585;-79
2021/10/24 07:02:58;;;;;;;3.47;2.50;;;7.90;46.90;;;;;;4915172;29;20455;-78
2021/10/24 07:05:27;;;;;;;3.80;3.50;;;7.90;48.80;;;;;;4901862;29;20448;-78
2021/10/24 07:07:55;;;;;;;4.50;3.87;;;8.10;51.20;;;;;;4909064;29;20571;-78
2021/10/24 07:10:25;;;;;;;2.80;2.60;;;8.00;50.00;;;;;;4910707;29;20529;-78
2021/10/24 07:12:53;;;;;;;4.40;2.70;;;8.10;49.00;;;;;;4913692;29;20488;-76
2021/10/24 07:15:23;;;;;;;5.03;3.77;;;7.90;56.40;;;;;;4910248;29;20477;-78
2021/10/24 07:17:51;;;;;;;4.17;3.43;;;7.90;56.40;;;;;;4913748;29;20467;-78
2021/10/24 07:20:20;;;;;;;4.73;2.80;;;8.00;61.60;;;;;;4911811;29;20455;-77
2021/10/24 07:22:48;;;;;;;5.03;3.97;;;8.30;60.60;;;;;;4908298;29;20464;-78
2021/10/24 07:25:16;;;;;;;3.30;3.03;;;8.00;85.80;;;;;;4907029;29;21035;-79
2021/10/24 07:27:46;;;;;;;3.10;2.90;;;8.20;70.10;;;;;;4913864;29;20830;-79
2021/10/24 07:30:14;;;;;;;4.40;2.90;;;8.30;72.10;;;;;;4904558;29;20466;-78
2021/10/24 07:32:43;;;;;;;6.63;4.63;;;8.30;74.70;;;;;;4912650;29;20470;-79
2021/10/24 07:35:11;;;;;;;4.47;4.10;;;8.40;80.60;;;;;;4911948;29;20244;-79
2021/10/24 07:37:40;;;;;;;6.10;5.50;;;8.50;90.80;;;;;;4905592;29;20484;-79
2021/10/24 07:40:10;;;;;;;5.60;3.60;;;8.50;90.30;;;;;;4910318;29;20933;-78
2021/10/24 07:42:38;;;;;;;5.33;3.57;;;8.80;92.50;;;;;;4912221;29;20466;-78
2021/10/24 07:45:09;;;;;;;5.07;4.57;;;9.10;96.30;;;;;;4908470;29;20624;-80
2021/10/24 07:47:38;;;;;;;3.43;3.13;;;9.10;94.10;;;;;;4922345;29;20488;-79
2021/10/24 07:50:09;;;;;;;4.57;3.80;;;9.20;97.00;;;;;;4913794;29;20472;-79
2021/10/24 07:52:39;;;;;;;6.57;3.80;;;9.40;96.10;;;;;;4910886;29;20487;-80
2021/10/24 07:55:08;;;;;;;3.37;3.03;;;9.50;96.40;;;;;;4910655;29;20733;-78
2021/10/24 07:57:36;;;;;;;4.10;3.70;;;9.70;96.50;;;;;;4908761;29;20492;-80
2021/10/24 08:00:07;;;;;;;5.50;3.87;;;10.00;96.60;;;;;;4912272;29;20467;-81
2021/10/24 08:02:37;;;;;;;5.23;3.70;;;10.30;99.90;;;;;;4912795;29;20453;-79
2021/10/24 08:05:06;;;;;;;3.83;2.60;;;10.60;98.90;;;;;;4910640;29;20456;-78
2021/10/24 08:07:37;;;;;;;4.55;3.28;;;10.90;98.50;;;;;;4914312;29;20446;-79
2021/10/24 08:10:06;;;;;;;2.83;2.63;;;11.10;97.50;;;;;;4913512;29;20285;-78
2021/10/24 08:12:35;;;;;;;9.13;2.60;;;11.40;97.00;;;;;;4910762;29;20447;-77
2021/10/24 08:15:04;;;;;;;3.50;2.33;;;11.40;96.90;;;;;;4913139;29;20474;-78
2021/10/24 08:17:32;;;;;;;2.20;2.00;;;11.60;97.00;;;;;;4906329;29;21214;-78
2021/10/24 08:20:02;;;;;;;5.30;2.20;;;11.80;98.00;;;;;;4914069;29;20450;-79
2021/10/24 08:22:32;;;;;;;2.40;1.73;;;12.00;97.10;;;;;;4918208;29;20534;-77
2021/10/24 08:25:00;;;;;;;3.27;2.13;;;12.00;94.10;;;;;;4918457;29;20521;-78
2021/10/24 08:27:30;;;;;;;2.97;2.20;;;12.00;92.70;;;;;;4914508;29;20477;-79
2021/10/24 08:29:58;;;;;;;2.97;1.93;;;12.10;93.60;;;;;;4915436;29;20505;-78
2021/10/24 08:32:27;;;;;;;2.40;1.83;;;12.40;94.90;;;;;;4911309;29;20521;-78
2021/10/24 08:34:55;;;;;;;3.23;2.10;;;12.60;92.60;;;;;;4910729;29;20478;-79
2021/10/24 08:37:25;;;;;;;1.93;1.80;;;12.70;91.80;;;;;;4914611;29;20965;-80
2021/10/24 08:39:55;;;;;;;3.73;1.80;;;12.90;95.00;;;;;;4917261;29;20463;-79
2021/10/24 08:42:27;;;;;;;3.03;1.70;;;13.20;95.30;;;;;;4915524;29;20486;-78
2021/10/24 08:44:55;;;;;;;4.07;2.10;;;13.30;92.90;;;;;;4923522;29;20916;-79
2021/10/24 08:47:24;;;;;;;4.90;2.27;;;13.50;92.00;;;;;;4911515;29;20515;-79
2021/10/24 08:49:53;;;;;;;4.43;2.20;;;13.60;90.60;;;;;;4916420;29;20467;-78
2021/10/24 08:52:23;;;;;;;4.93;2.53;;;13.60;90.50;;;;;;4917966;29;20462;-78
2021/10/24 08:54:53;;;;;;;3.40;1.97;;;13.80;91.80;;;;;;4906487;29;20477;-79
2021/10/24 08:57:24;;;;;;;3.27;2.00;;;14.00;90.60;;;;;;4910484;29;20477;-77
2021/10/24 08:59:53;;;;;;;2.10;1.60;;;14.10;90.30;;;;;;4915954;29;21134;-78
2021/10/24 09:02:22;;;;;;;2.17;1.97;;;14.30;93.80;;;;;;4915074;29;20508;-79
2021/10/24 09:04:51;;;;;;;4.30;2.40;;;14.30;91.80;;;;;;4913212;29;20496;-78
2021/10/24 09:07:21;;;;;;;2.67;2.20;;;14.10;90.40;;;;;;4921146;29;20519;-79
2021/10/24 09:09:50;;;;;;;2.47;2.27;;;14.40;93.20;;;;;;4925041;29;21019;-78
2021/10/24 09:12:20;;;;;;;3.37;1.90;;;14.60;93.20;;;;;;4909297;29;20732;-79
2021/10/24 09:14:51;;;;;;;3.57;2.00;;;14.90;95.80;;;;;;4901002;29;20489;-79
2021/10/24 09:17:22;;;;;;;2.80;2.00;;;15.10;94.10;;;;;;4914691;29;20483;-78
2021/10/24 09:19:54;;;;;;;9.23;2.40;;;15.20;92.60;;;;;;4911430;29;20892;-78
2021/10/24 09:22:24;;;;;;;2.40;1.80;;;15.50;96.10;;;;;;4912370;29;20447;-79
2021/10/24 09:25:13;;;;;;;2.87;2.47;;;15.80;93.90;;;;;;4916020;29;20945;-78
2021/10/24 09:27:50;;;;;;;3.73;1.80;;;16.00;94.00;;;;;;4920418;29;20479;-78
2021/10/24 09:30:22;;;;;;;2.43;1.77;;;16.20;94.00;;;;;;4916539;29;20456;-81
2021/10/24 09:32:53;;;;;;;1.87;1.40;;;16.40;95.10;;;;;;4915238;29;20461;-81
2021/10/24 09:35:28;;;;;;;2.30;2.10;;;16.50;94.60;;;;;;4916781;29;20493;-76
2021/10/24 09:37:58;;;;;;;6.63;1.97;;;16.60;93.00;;;;;;4920677;29;20469;-79
2021/10/24 09:40:28;;;;;;;2.10;1.83;;;16.60;90.90;;;;;;4915901;29;20460;-79
2021/10/24 09:43:13;;;;;;;2.30;1.70;;;16.60;89.40;;;;;;4902921;29;20481;-79
2021/10/24 09:45:42;;;;;;;2.20;2.00;;;16.40;88.00;;;;;;4906725;29;20540;-78
2021/10/24 09:48:13;;;;;;;2.27;2.07;;;16.50;88.50;;;;;;4916299;29;20483;-79
2021/10/24 09:50:46;;;;;;;4.03;2.10;;;16.50;84.90;;;;;;4915918;29;20453;-78
2021/10/24 09:53:20;;;;;;;1.60;1.50;;;16.50;82.50;;;;;;4916208;29;20452;-79
2021/10/24 09:56:03;;;;;;;3.13;2.17;;;16.50;80.90;;;;;;4912896;29;20477;-79
2021/10/24 09:58:34;;;;;;;2.30;1.97;;;16.60;84.30;;;;;;4915552;29;20989;-80
2021/10/24 10:01:05;;;;;;;2.50;1.93;;;16.60;79.90;;;;;;4912853;29;20481;-78
2021/10/24 10:03:35;;;;;;;4.63;2.03;;;16.70;80.90;;;;;;4910370;29;20970;-79
2021/10/24 10:06:04;;;;;;;2.70;1.60;;;16.70;79.70;;;;;;4926526;29;20453;-78
2021/10/24 10:08:43;;;;;;;2.80;2.00;;;16.60;77.30;;;;;;4911489;29;20821;-79
2021/10/24 10:11:18;;;;;;;3.73;3.10;;;16.60;75.20;;;;;;4910147;29;20531;-77
2021/10/24 10:13:55;;;;;;;3.63;1.93;;;16.70;81.30;;;;;;4908516;29;20468;-76
2021/10/24 10:16:31;;;;;;;2.13;1.73;;;17.00;84.20;;;;;;4910161;29;20488;-78
2021/10/24 10:19:11;;;;;;;1.60;1.50;;;17.20;88.40;;;;;;4911805;29;20469;-79
2021/10/24 10:21:41;;;;;;;2.20;1.60;;;17.30;84.60;;;;;;4912072;29;20458;-79
2021/10/24 10:24:11;;;;;;;1.90;1.80;;;17.40;86.20;;;;;;4913579;29;20472;-80
2021/10/24 10:26:41;;;;;;;3.07;1.70;;;17.50;86.50;;;;;;4906254;29;20859;-79
2021/10/24 10:29:12;;;;;;;2.67;2.13;;;17.50;85.30;;;;;;4909342;29;20466;-80
2021/10/24 10:31:49;;;;;;;2.60;1.50;;;17.50;82.80;;;;;;4911664;29;20465;-78
2021/10/24 10:34:17;;;;;;;2.90;1.90;;;17.40;80.70;;;;;;4914686;29;20453;-76
2021/10/24 10:37:02;;;;;;;3.50;1.70;;;16.90;72.40;;;;;;4911909;29;20507;-77
2021/10/24 10:39:41;;;;;;;3.60;1.70;;;17.00;74.10;;;;;;4914177;29;20788;-77
2021/10/24 10:42:56;;;;;;;3.73;3.53;;;17.20;93.50;;;;;;4906304;29;21107;-78
2021/10/24 10:45:28;;;;;;;1.50;1.40;;;17.30;77.60;;;;;;4909823;29;20453;-78
2021/10/24 10:47:58;;;;;;;1.40;1.30;;;17.30;77.70;;;;;;4914507;29;20555;-78
2021/10/24 10:50:46;;;;;;;3.43;1.50;;;17.60;80.10;;;;;;4914859;29;20458;-78
2021/10/24 10:53:20;;;;;;;2.40;1.50;;;17.90;83.80;;;;;;4912916;29;20470;-78
2021/10/24 10:56:19;;;;;;;1.70;1.60;;;18.10;84.20;;;;;;4911450;29;20489;-80
2021/10/24 10:58:50;;;;;;;2.80;1.60;;;18.10;81.90;;;;;;4911577;29;20505;-79
2021/10/24 11:01:24;;;;;;;3.13;2.60;;;18.50;90.00;;;;;;4914665;29;20484;-78
2021/10/24 11:03:56;;;;;;;1.97;1.30;;;18.80;90.70;;;;;;4914056;29;20538;-78
2021/10/24 11:07:06;;;;;;;1.50;1.40;;;18.80;89.60;;;;;;4915373;29;20533;-78
2021/10/24 11:09:48;;;;;;;1.63;1.50;;;18.80;89.20;;;;;;4902601;29;20464;-78
2021/10/24 11:12:47;;;;;;;1.50;1.40;;;18.70;90.40;;;;;;4905227;29;20828;-78
2021/10/24 11:15:29;;;;;;;2.43;1.80;;;18.70;86.70;;;;;;4907762;29;20821;-78
2021/10/24 11:18:02;;;;;;;3.17;1.37;;;18.40;82.30;;;;;;4915003;29;20465;-78
2021/10/24 11:20:44;;;;;;;1.47;1.37;;;18.30;83.20;;;;;;4911003;29;20462;-79
2021/10/24 11:23:18;;;;;;;1.47;1.37;;;18.20;82.10;;;;;;4914596;29;20874;-78
2021/10/24 11:25:53;;;;;;;2.10;1.53;;;17.80;80.60;;;;;;4915088;29;20446;-78
2021/10/24 11:28:25;;;;;;;2.00;1.33;;;17.90;77.40;;;;;;4909107;29;20500;-78
2021/10/24 11:31:01;;;;;;;2.80;1.50;;;17.70;74.80;;;;;;4914213;29;20465;-78
2021/10/24 11:33:44;;;;;;;3.07;1.30;;;17.70;74.90;;;;;;4914030;29;20461;-78
2021/10/24 11:36:18;;;;;;;1.60;1.27;;;17.80;77.20;;;;;;4913597;29;20848;-78
2021/10/24 11:38:46;;;;;;;1.47;1.37;;;17.70;73.50;;;;;;4912295;29;20465;-78
2021/10/24 11:41:19;;;;;;;2.90;1.27;;;17.80;75.80;;;;;;4927232;29;20893;-78
2021/10/24 11:43:49;;;;;;;2.40;1.70;;;17.80;77.30;;;;;;4898004;29;20476;-78
2021/10/24 11:46:18;;;;;;;2.13;1.30;;;17.90;76.30;;;;;;4916279;29;20469;-79
2021/10/24 11:49:01;;;;;;;1.80;1.47;;;17.90;76.10;;;;;;4923277;29;20467;-78
2021/10/24 11:51:30;;;;;;;2.23;1.30;;;17.80;74.00;;;;;;4913317;29;20465;-78
2021/10/24 11:53:58;;;;;;;1.63;1.50;;;17.80;74.00;;;;;;4913411;29;20457;-78
2021/10/24 11:56:39;;;;;;;1.63;1.53;;;17.80;72.10;;;;;;4918055;29;20497;-78
2021/10/24 11:59:14;;;;;;;2.10;1.43;;;17.70;71.50;;;;;;4916578;29;20483;-77
2021/10/24 12:01:43;;;;;;;3.23;1.53;;;17.70;71.80;;;;;;4911791;29;20464;-78
2021/10/24 12:04:18;;;;;;;1.80;1.30;;;17.60;70.50;;;;;;4918376;29;20464;-79
2021/10/24 12:06:56;;;;;;;2.67;1.50;;;17.70;72.70;;;;;;4918304;29;20524;-77
2021/10/24 12:09:34;;;;;;;2.30;1.40;;;17.70;72.10;;;;;;4916475;29;20454;-79
2021/10/24 12:12:07;;;;;;;4.83;1.53;;;17.70;73.30;;;;;;4917799;29;20965;-78
2021/10/24 12:14:50;;;;;;;2.43;1.87;;;17.80;75.20;;;;;;4913551;29;20457;-78
2021/10/24 12:17:19;;;;;;;1.97;1.50;;;17.80;73.40;;;;;;4917721;29;20493;-78
2021/10/24 12:19:50;;;;;;;2.53;1.40;;;17.80;73.60;;;;;;4913676;29;20452;-78
2021/10/24 12:22:18;;;;;;;2.33;1.37;;;17.80;74.50;;;;;;4921190;29;20966;-79
2021/10/24 12:24:49;;;;;;;2.10;1.50;;;17.80;77.50;;;;;;4909445;29;21187;-78
2021/10/24 12:27:25;;;;;;;3.00;1.63;;;17.90;75.50;;;;;;4920194;29;20517;-78
2021/10/24 12:30:07;;;;;;;1.60;1.50;;;17.70;72.40;;;;;;4907357;29;20484;-78
2021/10/24 12:32:36;;;;;;;2.33;1.50;;;17.70;73.60;;;;;;4918470;29;20842;-78
2021/10/24 12:35:10;;;;;;;2.30;1.57;;;17.80;75.90;;;;;;4917139;29;20465;-78
2021/10/24 12:37:39;;;;;;;2.67;1.97;;;17.90;78.70;;;;;;4917845;29;20493;-79
2021/10/24 12:40:26;;;;;;;2.57;2.03;;;17.90;76.30;;;;;;4918687;29;20465;-78
2021/10/24 12:43:12;;;;;;;2.50;1.60;;;17.90;76.60;;;;;;4913698;29;20513;-78
2021/10/24 12:45:45;;;;;;;2.77;1.60;;;17.90;92.20;;;;;;4916881;29;20457;-78
2021/10/24 12:48:14;;;;;;;1.53;1.30;;;17.90;76.50;;;;;;4918173;29;20462;-78
2021/10/24 12:50:44;;;;;;;1.97;1.80;;;17.90;77.40;;;;;;4916970;29;20547;-78
2021/10/24 12:53:15;;;;;;;1.30;1.20;;;18.00;77.90;;;;;;4916619;29;20986;-79
2021/10/24 12:55:59;;;;;;;1.40;1.30;;;18.00;76.70;;;;;;4916619;29;20458;-77
2021/10/24 12:58:27;;;;;;;1.90;1.70;;;17.90;75.60;;;;;;4915537;29;20500;-78
2021/10/24 13:00:56;;;;;;;1.93;1.50;;;17.80;76.90;;;;;;4917432;29;20457;-78
2021/10/24 13:03:24;;;;;;;1.90;1.70;;;17.90;77.70;;;;;;4916537;29;20986;-78
2021/10/24 13:05:54;;;;;;;1.53;1.37;;;17.90;79.00;;;;;;4916625;29;20461;-78
2021/10/24 13:08:22;;;;;;;2.20;1.40;;;17.80;77.40;;;;;;4916745;29;20906;-76
2021/10/24 13:10:50;;;;;;;2.00;1.40;;;17.80;78.80;;;;;;4907812;29;20476;-79